createdAt,value
2019-03-31T00:04:08.113Z,61.06
2019-03-31T00:09:15.059Z,61.05
2019-03-31T00:14:20.685Z,60.55
2019-03-31T00:19:26.241Z,61.31
2019-03-31T00:24:31.916Z,61.49
2019-03-31T00:29:38.016Z,61.87
2019-03-31T00:34:43.537Z,62.67
2019-03-31T00:39:49.179Z,63.46
2019-03-31T00:44:54.765Z,63.57
2019-03-31T00:50:00.586Z,63.92
2019-03-31T00:55:06.451Z,63.92
2019-03-31T01:00:13.851Z,63.69
2019-03-31T01:05:21.467Z,64.59
2019-03-31T01:10:27.127Z,64.53
2019-03-31T01:15:34.124Z,64.03
2019-03-31T01:20:40.127Z,64.24
2019-03-31T01:25:45.662Z,65.11
2019-03-31T01:30:51.775Z,64.91
2019-03-31T01:35:57.320Z,65.89
2019-03-31T01:41:02.862Z,65.15
2019-03-31T01:46:10.352Z,64.60
2019-03-31T01:51:15.910Z,64.36
2019-03-31T01:56:22.156Z,64.57
2019-03-31T02:01:27.657Z,64.93
2019-03-31T02:06:33.603Z,65.81
2019-03-31T02:11:39.192Z,65.49
2019-03-31T02:16:44.711Z,65.87
2019-03-31T02:21:50.726Z,65.39
2019-03-31T02:26:56.251Z,64.99
2019-03-31T02:32:01.613Z,65.57
2019-03-31T02:37:09.644Z,66.37
2019-03-31T02:42:15.284Z,66.76
2019-03-31T02:47:21.220Z,67.09
2019-03-31T02:52:27.492Z,67.95
2019-03-31T02:57:33.511Z,67.60
2019-03-31T03:02:42.011Z,67.83
2019-03-31T03:07:47.804Z,67.53
2019-03-31T03:12:53.784Z,68.05
2019-03-31T03:17:59.350Z,67.97
2019-03-31T03:23:04.990Z,68.66
2019-03-31T03:28:10.537Z,69.00
2019-03-31T03:33:18.207Z,69.44
2019-03-31T03:38:23.715Z,69.54
2019-03-31T03:43:29.240Z,69.60
2019-03-31T03:48:40.032Z,69.37
2019-03-31T03:53:45.764Z,69.13
2019-03-31T03:58:51.338Z,69.21
2019-03-31T04:03:56.946Z,69.29
2019-03-31T04:09:02.549Z,69.99
2019-03-31T04:14:08.188Z,69.99
2019-03-31T04:19:13.742Z,70.21
2019-03-31T04:24:19.307Z,70.62
2019-03-31T04:29:24.905Z,70.47
2019-03-31T04:34:30.373Z,70.43
2019-03-31T04:39:36.097Z,70.85
2019-03-31T04:44:44.228Z,71.06
2019-03-31T04:49:50.484Z,71.28
2019-03-31T04:55:06.981Z,70.99
2019-03-31T05:00:12.705Z,70.83
2019-03-31T05:05:18.463Z,71.11
2019-03-31T05:10:29.830Z,71.65
2019-03-31T05:15:41.036Z,71.85
2019-03-31T05:20:47.041Z,72.33
2019-03-31T05:25:53.509Z,72.22
2019-03-31T05:30:59.215Z,73.05
2019-03-31T05:36:04.973Z,73.39
2019-03-31T05:41:10.935Z,73.80
2019-03-31T05:46:17.615Z,74.32
2019-03-31T05:51:23.234Z,74.17
2019-03-31T05:56:30.724Z,74.62
2019-03-31T06:01:36.265Z,74.56
2019-03-31T06:06:41.837Z,74.40
2019-03-31T06:11:47.850Z,74.81
2019-03-31T06:16:53.448Z,74.63
2019-03-31T06:21:59.144Z,75.14
2019-03-31T06:27:04.801Z,74.41
2019-03-31T06:32:11.264Z,73.36
2019-03-31T06:37:17.256Z,73.57
2019-03-31T06:42:23.971Z,73.61
2019-03-31T06:47:29.585Z,73.88
2019-03-31T06:52:35.124Z,73.96
2019-03-31T06:57:41.022Z,74.31
2019-03-31T07:02:46.563Z,74.96
2019-03-31T07:07:52.097Z,75.51
2019-03-31T07:12:59.745Z,75.33
2019-03-31T07:18:05.160Z,74.50
2019-03-31T07:23:10.951Z,75.05
2019-03-31T07:28:16.885Z,74.84
2019-03-31T07:33:22.677Z,75.28
2019-03-31T07:38:38.731Z,76.14
2019-03-31T07:43:36.794Z,76.08
2019-03-31T07:48:42.767Z,76.57
2019-03-31T07:53:48.392Z,76.68
2019-03-31T07:58:54.002Z,76.94
2019-03-31T08:03:59.551Z,76.97
2019-03-31T08:09:08.000Z,76.16
2019-03-31T08:14:14.052Z,76.74
2019-03-31T08:19:22.358Z,77.84
2019-03-31T08:24:28.258Z,77.97
2019-03-31T08:29:33.893Z,78.06
2019-03-31T08:34:39.585Z,78.05
2019-03-31T08:39:45.168Z,78.62
2019-03-31T08:44:50.828Z,78.46
2019-03-31T08:49:56.775Z,78.08
2019-03-31T08:55:02.390Z,79.09
2019-03-31T09:00:11.696Z,79.14
2019-03-31T09:05:17.386Z,80.33
2019-03-31T09:10:24.189Z,80.27
2019-03-31T09:15:29.836Z,80.12
2019-03-31T09:20:35.408Z,79.64
2019-03-31T09:25:41.025Z,80.43
2019-03-31T09:30:48.629Z,80.17
2019-03-31T09:35:54.627Z,80.60
2019-03-31T09:41:00.287Z,80.40
2019-03-31T09:46:06.755Z,79.85
2019-03-31T09:51:12.379Z,79.10
2019-03-31T09:56:18.121Z,79.61
2019-03-31T10:01:23.844Z,79.11
2019-03-31T10:06:30.787Z,79.20
2019-03-31T10:11:38.142Z,78.94
2019-03-31T10:16:44.612Z,78.85
2019-03-31T10:21:50.678Z,77.85
2019-03-31T10:27:06.522Z,78.36
2019-03-31T10:32:12.037Z,78.39
2019-03-31T10:37:18.144Z,78.56
2019-03-31T10:42:23.838Z,77.82
2019-03-31T10:47:34.474Z,77.44
2019-03-31T10:52:41.029Z,77.57
2019-03-31T10:57:46.654Z,77.97
2019-03-31T11:02:52.202Z,77.26
2019-03-31T11:07:57.731Z,76.66
2019-03-31T11:13:03.330Z,76.59
2019-03-31T11:18:08.983Z,76.64
2019-03-31T11:23:32.568Z,77.02
2019-03-31T11:28:38.604Z,77.44
2019-03-31T11:33:44.283Z,78.17
2019-03-31T11:38:49.950Z,78.42
2019-03-31T11:43:55.657Z,78.73
2019-03-31T11:49:02.514Z,78.74
2019-03-31T11:54:08.299Z,77.70
2019-03-31T11:59:13.966Z,77.23
2019-03-31T12:04:19.604Z,77.50
2019-03-31T12:09:25.244Z,76.88
2019-03-31T12:14:31.063Z,77.02
2019-03-31T12:19:36.657Z,75.57
2019-03-31T12:24:42.426Z,75.98
2019-03-31T12:29:48.103Z,76.86
2019-03-31T12:34:54.949Z,73.50
2019-03-31T12:40:00.644Z,69.19
2019-03-31T12:45:06.485Z,65.82
2019-03-31T12:50:12.074Z,65.65
2019-03-31T12:55:18.866Z,64.64
2019-03-31T13:00:24.624Z,65.29
2019-03-31T13:05:30.952Z,66.12
2019-03-31T13:10:36.577Z,65.83
2019-03-31T13:15:42.345Z,66.12
2019-03-31T13:20:48.082Z,66.48
2019-03-31T13:25:53.690Z,67.30
2019-03-31T13:30:59.316Z,66.98
2019-03-31T13:36:05.136Z,67.18
2019-03-31T13:41:10.954Z,67.15
2019-03-31T13:46:16.930Z,68.64
2019-03-31T13:51:24.748Z,69.05
2019-03-31T13:56:31.490Z,69.54
2019-03-31T14:01:38.496Z,69.96
2019-03-31T14:07:08.159Z,70.38
2019-03-31T14:12:13.942Z,69.87
2019-03-31T14:17:24.473Z,70.02
2019-03-31T14:22:30.938Z,69.64
2019-03-31T14:27:37.769Z,69.71
2019-03-31T14:32:44.559Z,68.54
2019-03-31T14:37:50.741Z,68.28
2019-03-31T14:42:56.834Z,67.39
2019-03-31T14:48:06.486Z,67.25
2019-03-31T14:53:15.113Z,68.63
2019-03-31T14:58:21.487Z,68.01
2019-03-31T15:03:27.439Z,68.21
2019-03-31T15:08:33.333Z,67.31
2019-03-31T15:13:39.726Z,66.80
2019-03-31T15:18:45.371Z,65.01
2019-03-31T15:23:51.547Z,64.33
2019-03-31T15:28:57.273Z,64.43
2019-03-31T15:34:02.853Z,63.60
2019-03-31T15:39:09.506Z,62.38
2019-03-31T15:44:15.262Z,62.18
2019-03-31T15:49:20.870Z,61.69
2019-03-31T15:54:26.866Z,60.08
2019-03-31T15:59:39.221Z,61.15
2019-03-31T16:04:45.503Z,61.18
2019-03-31T16:09:51.673Z,59.51
2019-03-31T16:14:56.809Z,59.39
2019-03-31T16:20:07.544Z,59.77
2019-03-31T16:25:27.378Z,59.64
2019-03-31T16:30:33.790Z,59.87
2019-03-31T16:35:40.422Z,59.24
2019-03-31T16:40:46.856Z,59.31
2019-03-31T16:45:52.000Z,59.52
2019-03-31T16:51:00.262Z,60.49
2019-03-31T16:56:05.590Z,61.40
2019-03-31T17:01:13.641Z,62.43
2019-03-31T17:06:19.983Z,62.51
2019-03-31T17:11:28.974Z,63.56
2019-03-31T17:16:35.187Z,64.22
2019-03-31T17:21:40.897Z,64.50
2019-03-31T17:26:49.102Z,64.96
2019-03-31T17:31:54.227Z,64.78
2019-03-31T17:37:00.375Z,64.58
2019-03-31T17:42:05.475Z,64.39
2019-03-31T17:47:10.682Z,64.61
2019-03-31T17:52:15.852Z,65.36
2019-03-31T17:57:20.910Z,66.11
2019-03-31T18:02:26.063Z,67.12
2019-03-31T18:07:33.694Z,67.58
2019-03-31T18:12:39.826Z,67.69
2019-03-31T18:17:45.510Z,68.02
2019-03-31T18:22:56.338Z,69.09
2019-03-31T18:28:07.584Z,69.06
2019-03-31T18:33:13.277Z,69.31
2019-03-31T18:38:18.573Z,69.62
2019-03-31T18:43:25.554Z,69.71
2019-03-31T18:48:30.869Z,69.88
2019-03-31T18:53:41.704Z,69.79
2019-03-31T18:59:08.927Z,70.00
2019-03-31T19:04:38.972Z,70.16
2019-03-31T19:10:23.718Z,70.49
2019-03-31T19:15:35.567Z,70.66
2019-03-31T19:21:11.352Z,70.38
2019-03-31T19:26:48.106Z,70.89
2019-03-31T19:32:21.330Z,69.99
2019-03-31T19:37:51.342Z,68.68
2019-03-31T19:43:15.137Z,66.65
2019-03-31T19:48:43.499Z,65.03
2019-03-31T19:54:13.914Z,64.69
2019-03-31T19:59:36.809Z,64.54
2019-03-31T20:04:48.984Z,64.20
2019-03-31T20:10:04.779Z,64.21
2019-03-31T20:15:39.001Z,64.08
2019-03-31T20:20:56.589Z,64.02
2019-03-31T20:26:26.726Z,64.21
2019-03-31T20:31:54.010Z,64.15
2019-03-31T20:37:16.431Z,63.15
2019-03-31T20:42:43.170Z,62.72
2019-03-31T20:47:48.363Z,62.74
2019-03-31T20:52:53.588Z,63.19
2019-03-31T20:57:58.644Z,62.97
2019-03-31T21:03:04.827Z,62.50
2019-03-31T21:08:10.441Z,61.78
2019-03-31T21:13:15.715Z,61.24
2019-03-31T21:18:20.806Z,59.42
2019-03-31T21:23:25.876Z,57.56
2019-03-31T21:28:31.308Z,57.92
2019-03-31T21:33:36.666Z,56.61
2019-03-31T21:38:42.487Z,55.27
2019-03-31T21:43:47.788Z,55.19
2019-03-31T21:48:53.259Z,55.02
2019-03-31T21:53:58.402Z,53.89
2019-03-31T21:59:04.278Z,54.29
2019-03-31T22:04:09.303Z,53.89
2019-03-31T22:09:14.480Z,54.28
2019-03-31T22:14:19.577Z,54.22
2019-03-31T22:19:24.714Z,53.30
2019-03-31T22:24:29.720Z,53.32
2019-03-31T22:29:34.818Z,52.47
2019-03-31T22:34:39.836Z,52.82
2019-03-31T22:39:44.899Z,53.44
2019-03-31T22:44:50.212Z,53.42
2019-03-31T22:49:55.193Z,53.14
2019-03-31T22:55:00.355Z,53.48
2019-03-31T23:00:05.866Z,54.12
2019-03-31T23:05:12.492Z,54.45
2019-03-31T23:10:18.006Z,54.64
2019-03-31T23:15:23.032Z,55.42
2019-03-31T23:20:28.080Z,55.72
2019-03-31T23:25:33.269Z,55.36
2019-03-31T23:30:38.891Z,55.39
2019-03-31T23:35:44.220Z,55.47
2019-03-31T23:40:49.612Z,56.32
2019-03-31T23:45:54.674Z,56.22
2019-03-31T23:50:59.658Z,56.79
2019-03-31T23:56:04.730Z,56.45
